sensor_id;sensor_type;location;lat;lon;timestamp;P1;durP1;ratioP1;P2;durP2;ratioP2
17207;SDS011;8720;48.488;9.202;2023-05-10T00:01:21;0.93;;;0.70;;
17207;SDS011;8720;48.488;9.202;2023-05-10T00:03:48;1.33;;;0.80;;
17207;SDS011;8720;48.488;9.202;2023-05-10T00:06:15;1.10;;;0.70;;
17207;SDS011;8720;48.488;9.202;2023-05-10T00:08:43;1.20;;;0.90;;
17207;SDS011;8720;48.488;9.202;2023-05-10T00:11:11;1.20;;;0.83;;
17207;SDS011;8720;48.488;9.202;2023-05-10T00:13:38;0.90;;;0.70;;
17207;SDS011;8720;48.488;9.202;2023-05-10T00:16:07;1.10;;;0.80;;
17207;SDS011;8720;48.488;9.202;2023-05-10T00:18:34;1.40;;;0.80;;
17207;SDS011;8720;48.488;9.202;2023-05-10T00:21:02;0.90;;;0.70;;
17207;SDS011;8720;48.488;9.202;2023-05-10T00:23:30;8.43;;;1.20;;
17207;SDS011;8720;48.488;9.202;2023-05-10T00:25:57;1.00;;;0.60;;
17207;SDS011;8720;48.488;9.202;2023-05-10T00:28:24;2.00;;;0.80;;
17207;SDS011;8720;48.488;9.202;2023-05-10T00:30:53;1.37;;;0.70;;
17207;SDS011;8720;48.488;9.202;2023-05-10T00:33:22;1.13;;;0.70;;
17207;SDS011;8720;48.488;9.202;2023-05-10T00:35:50;1.67;;;0.70;;
17207;SDS011;8720;48.488;9.202;2023-05-10T00:38:17;1.07;;;0.80;;
17207;SDS011;8720;48.488;9.202;2023-05-10T00:40:44;1.43;;;0.80;;
17207;SDS011;8720;48.488;9.202;2023-05-10T00:43:20;1.07;;;0.70;;
17207;SDS011;8720;48.488;9.202;2023-05-10T00:45:47;1.07;;;0.80;;
17207;SDS011;8720;48.488;9.202;2023-05-10T00:48:16;1.10;;;0.70;;
17207;SDS011;8720;48.488;9.202;2023-05-10T00:50:44;2.03;;;0.80;;
17207;SDS011;8720;48.488;9.202;2023-05-10T00:53:12;1.67;;;0.90;;
17207;SDS011;8720;48.488;9.202;2023-05-10T00:55:40;1.40;;;0.67;;
17207;SDS011;8720;48.488;9.202;2023-05-10T00:58:08;0.90;;;0.60;;
17207;SDS011;8720;48.488;9.202;2023-05-10T01:00:35;0.90;;;0.67;;
17207;SDS011;8720;48.488;9.202;2023-05-10T01:03:09;0.90;;;0.63;;
17207;SDS011;8720;48.488;9.202;2023-05-10T01:05:37;3.27;;;0.70;;
17207;SDS011;8720;48.488;9.202;2023-05-10T01:08:05;0.90;;;0.60;;
17207;SDS011;8720;48.488;9.202;2023-05-10T01:10:33;0.90;;;0.60;;
17207;SDS011;8720;48.488;9.202;2023-05-10T01:13:01;2.60;;;0.70;;
17207;SDS011;8720;48.488;9.202;2023-05-10T01:15:29;0.90;;;0.60;;
17207;SDS011;8720;48.488;9.202;2023-05-10T01:17:58;1.83;;;0.57;;
17207;SDS011;8720;48.488;9.202;2023-05-10T01:20:26;0.90;;;0.60;;
17207;SDS011;8720;48.488;9.202;2023-05-10T01:26:08;0.90;;;0.60;;
17207;SDS011;8720;48.488;9.202;2023-05-10T01:28:58;1.83;;;0.70;;
17207;SDS011;8720;48.488;9.202;2023-05-10T01:32:21;1.77;;;0.60;;
17207;SDS011;8720;48.488;9.202;2023-05-10T01:35:02;2.03;;;0.70;;
17207;SDS011;8720;48.488;9.202;2023-05-10T01:37:39;1.33;;;0.70;;
17207;SDS011;8720;48.488;9.202;2023-05-10T01:40:14;2.80;;;0.70;;
17207;SDS011;8720;48.488;9.202;2023-05-10T01:42:53;1.00;;;0.80;;
17207;SDS011;8720;48.488;9.202;2023-05-10T01:45:30;1.17;;;0.80;;
17207;SDS011;8720;48.488;9.202;2023-05-10T01:48:07;1.10;;;0.80;;
17207;SDS011;8720;48.488;9.202;2023-05-10T01:50:38;1.00;;;0.60;;
17207;SDS011;8720;48.488;9.202;2023-05-10T01:53:10;1.03;;;0.57;;
17207;SDS011;8720;48.488;9.202;2023-05-10T01:55:45;0.90;;;0.67;;
17207;SDS011;8720;48.488;9.202;2023-05-10T01:58:17;1.63;;;0.60;;
17207;SDS011;8720;48.488;9.202;2023-05-10T02:03:33;1.63;;;0.60;;
17207;SDS011;8720;48.488;9.202;2023-05-10T02:06:05;1.43;;;0.60;;
17207;SDS011;8720;48.488;9.202;2023-05-10T02:08:34;1.10;;;0.80;;
17207;SDS011;8720;48.488;9.202;2023-05-10T02:11:03;1.20;;;0.60;;
17207;SDS011;8720;48.488;9.202;2023-05-10T02:13:32;1.10;;;0.60;;
17207;SDS011;8720;48.488;9.202;2023-05-10T02:16:05;0.90;;;0.60;;
17207;SDS011;8720;48.488;9.202;2023-05-10T02:18:35;1.00;;;0.70;;
17207;SDS011;8720;48.488;9.202;2023-05-10T02:21:03;1.20;;;0.90;;
17207;SDS011;8720;48.488;9.202;2023-05-10T02:23:31;0.97;;;0.70;;
17207;SDS011;8720;48.488;9.202;2023-05-10T02:26:01;1.67;;;0.80;;
17207;SDS011;8720;48.488;9.202;2023-05-10T02:28:31;1.60;;;0.80;;
17207;SDS011;8720;48.488;9.202;2023-05-10T02:31:00;0.90;;;0.60;;
17207;SDS011;8720;48.488;9.202;2023-05-10T02:33:28;2.13;;;0.60;;
17207;SDS011;8720;48.488;9.202;2023-05-10T02:36:00;1.00;;;0.70;;
17207;SDS011;8720;48.488;9.202;2023-05-10T02:38:29;1.87;;;0.70;;
17207;SDS011;8720;48.488;9.202;2023-05-10T02:40:59;1.00;;;0.70;;
17207;SDS011;8720;48.488;9.202;2023-05-10T02:43:28;1.60;;;0.80;;
17207;SDS011;8720;48.488;9.202;2023-05-10T02:45:58;0.90;;;0.60;;
17207;SDS011;8720;48.488;9.202;2023-05-10T02:48:26;1.20;;;0.70;;
17207;SDS011;8720;48.488;9.202;2023-05-10T02:50:53;1.23;;;0.80;;
17207;SDS011;8720;48.488;9.202;2023-05-10T02:53:31;2.40;;;0.73;;
17207;SDS011;8720;48.488;9.202;2023-05-10T02:56:04;1.30;;;0.70;;
17207;SDS011;8720;48.488;9.202;2023-05-10T02:58:39;2.70;;;1.20;;
17207;SDS011;8720;48.488;9.202;2023-05-10T03:01:07;3.43;;;0.80;;
17207;SDS011;8720;48.488;9.202;2023-05-10T03:03:35;1.57;;;0.80;;
17207;SDS011;8720;48.488;9.202;2023-05-10T03:06:04;1.17;;;0.70;;
17207;SDS011;8720;48.488;9.202;2023-05-10T03:08:31;1.60;;;1.50;;
17207;SDS011;8720;48.488;9.202;2023-05-10T03:11:03;1.03;;;0.80;;
17207;SDS011;8720;48.488;9.202;2023-05-10T03:14:04;1.10;;;0.90;;
17207;SDS011;8720;48.488;9.202;2023-05-10T03:16:44;1.73;;;0.93;;
17207;SDS011;8720;48.488;9.202;2023-05-10T03:19:17;1.03;;;0.70;;
17207;SDS011;8720;48.488;9.202;2023-05-10T03:21:54;2.93;;;0.73;;
17207;SDS011;8720;48.488;9.202;2023-05-10T03:24:29;3.00;;;0.90;;
17207;SDS011;8720;48.488;9.202;2023-05-10T03:27:00;1.20;;;0.90;;
17207;SDS011;8720;48.488;9.202;2023-05-10T03:29:30;2.20;;;0.83;;
17207;SDS011;8720;48.488;9.202;2023-05-10T03:31:59;1.30;;;0.80;;
17207;SDS011;8720;48.488;9.202;2023-05-10T03:34:29;1.20;;;0.83;;
17207;SDS011;8720;48.488;9.202;2023-05-10T03:36:58;1.30;;;0.80;;
17207;SDS011;8720;48.488;9.202;2023-05-10T03:39:29;1.10;;;1.00;;
17207;SDS011;8720;48.488;9.202;2023-05-10T03:41:58;1.50;;;0.80;;
17207;SDS011;8720;48.488;9.202;2023-05-10T03:44:25;3.20;;;1.03;;
17207;SDS011;8720;48.488;9.202;2023-05-10T03:46:53;1.80;;;0.80;;
17207;SDS011;8720;48.488;9.202;2023-05-10T03:49:21;1.60;;;0.97;;
17207;SDS011;8720;48.488;9.202;2023-05-10T03:51:48;1.90;;;0.93;;
17207;SDS011;8720;48.488;9.202;2023-05-10T03:54:16;1.10;;;0.90;;
17207;SDS011;8720;48.488;9.202;2023-05-10T03:56:45;1.93;;;0.80;;
17207;SDS011;8720;48.488;9.202;2023-05-10T03:59:14;1.87;;;0.80;;
17207;SDS011;8720;48.488;9.202;2023-05-10T04:01:41;1.80;;;1.00;;
17207;SDS011;8720;48.488;9.202;2023-05-10T04:04:08;1.70;;;0.90;;
17207;SDS011;8720;48.488;9.202;2023-05-10T04:06:35;2.00;;;1.10;;
17207;SDS011;8720;48.488;9.202;2023-05-10T04:09:04;1.20;;;0.97;;
17207;SDS011;8720;48.488;9.202;2023-05-10T04:11:32;1.20;;;1.00;;
17207;SDS011;8720;48.488;9.202;2023-05-10T04:14:00;1.30;;;0.90;;
17207;SDS011;8720;48.488;9.202;2023-05-10T04:16:27;1.10;;;1.00;;
17207;SDS011;8720;48.488;9.202;2023-05-10T04:18:54;1.10;;;0.80;;
17207;SDS011;8720;48.488;9.202;2023-05-10T04:21:22;1.40;;;0.90;;
17207;SDS011;8720;48.488;9.202;2023-05-10T04:23:49;4.53;;;0.93;;
17207;SDS011;8720;48.488;9.202;2023-05-10T04:26:17;1.20;;;0.93;;
17207;SDS011;8720;48.488;9.202;2023-05-10T04:28:45;1.10;;;0.90;;
17207;SDS011;8720;48.488;9.202;2023-05-10T04:31:12;1.27;;;0.90;;
17207;SDS011;8720;48.488;9.202;2023-05-10T04:33:40;2.97;;;1.30;;
17207;SDS011;8720;48.488;9.202;2023-05-10T04:36:07;1.20;;;0.90;;
17207;SDS011;8720;48.488;9.202;2023-05-10T04:38:35;2.17;;;1.20;;
17207;SDS011;8720;48.488;9.202;2023-05-10T04:41:05;1.50;;;0.80;;
17207;SDS011;8720;48.488;9.202;2023-05-10T04:43:34;1.30;;;1.00;;
17207;SDS011;8720;48.488;9.202;2023-05-10T04:46:03;1.20;;;1.00;;
17207;SDS011;8720;48.488;9.202;2023-05-10T04:48:32;1.50;;;1.00;;
17207;SDS011;8720;48.488;9.202;2023-05-10T04:50:59;1.10;;;0.80;;
17207;SDS011;8720;48.488;9.202;2023-05-10T04:53:28;1.90;;;1.53;;
17207;SDS011;8720;48.488;9.202;2023-05-10T04:55:56;3.67;;;1.90;;
17207;SDS011;8720;48.488;9.202;2023-05-10T04:58:23;1.50;;;1.40;;
17207;SDS011;8720;48.488;9.202;2023-05-10T05:00:51;1.83;;;1.63;;
17207;SDS011;8720;48.488;9.202;2023-05-10T05:03:19;2.57;;;1.50;;
17207;SDS011;8720;48.488;9.202;2023-05-10T05:05:47;2.80;;;1.93;;
17207;SDS011;8720;48.488;9.202;2023-05-10T05:08:14;1.80;;;1.70;;
17207;SDS011;8720;48.488;9.202;2023-05-10T05:10:41;1.50;;;1.40;;
17207;SDS011;8720;48.488;9.202;2023-05-10T05:13:09;1.63;;;1.53;;
17207;SDS011;8720;48.488;9.202;2023-05-10T05:15:36;1.57;;;1.27;;
17207;SDS011;8720;48.488;9.202;2023-05-10T05:18:03;1.87;;;1.17;;
17207;SDS011;8720;48.488;9.202;2023-05-10T05:20:33;3.60;;;1.17;;
17207;SDS011;8720;48.488;9.202;2023-05-10T05:23:01;1.80;;;1.47;;
17207;SDS011;8720;48.488;9.202;2023-05-10T05:25:28;2.03;;;1.70;;
17207;SDS011;8720;48.488;9.202;2023-05-10T05:27:55;1.77;;;1.30;;
17207;SDS011;8720;48.488;9.202;2023-05-10T05:30:23;1.50;;;1.07;;
17207;SDS011;8720;48.488;9.202;2023-05-10T05:32:50;1.50;;;1.00;;
17207;SDS011;8720;48.488;9.202;2023-05-10T05:35:17;1.10;;;1.00;;
17207;SDS011;8720;48.488;9.202;2023-05-10T05:37:46;1.50;;;1.40;;
17207;SDS011;8720;48.488;9.202;2023-05-10T05:40:13;1.30;;;1.03;;
17207;SDS011;8720;48.488;9.202;2023-05-10T05:42:40;1.97;;;1.00;;
17207;SDS011;8720;48.488;9.202;2023-05-10T05:45:08;1.40;;;1.00;;
17207;SDS011;8720;48.488;9.202;2023-05-10T05:47:38;2.70;;;1.00;;
17207;SDS011;8720;48.488;9.202;2023-05-10T05:50:05;1.40;;;1.10;;
17207;SDS011;8720;48.488;9.202;2023-05-10T05:52:33;1.27;;;1.13;;
17207;SDS011;8720;48.488;9.202;2023-05-10T05:55:02;1.30;;;1.07;;
17207;SDS011;8720;48.488;9.202;2023-05-10T05:57:30;1.43;;;1.30;;
17207;SDS011;8720;48.488;9.202;2023-05-10T05:59:58;1.70;;;1.50;;
17207;SDS011;8720;48.488;9.202;2023-05-10T06:02:25;2.03;;;1.30;;
17207;SDS011;8720;48.488;9.202;2023-05-10T06:04:52;1.70;;;1.20;;
17207;SDS011;8720;48.488;9.202;2023-05-10T06:07:20;2.40;;;1.30;;
17207;SDS011;8720;48.488;9.202;2023-05-10T06:09:47;1.40;;;1.10;;
17207;SDS011;8720;48.488;9.202;2023-05-10T06:12:15;2.17;;;1.93;;
17207;SDS011;8720;48.488;9.202;2023-05-10T06:14:43;1.20;;;1.10;;
17207;SDS011;8720;48.488;9.202;2023-05-10T06:17:10;1.30;;;1.20;;
17207;SDS011;8720;48.488;9.202;2023-05-10T06:19:37;1.50;;;1.30;;
17207;SDS011;8720;48.488;9.202;2023-05-10T06:22:04;2.60;;;1.30;;
17207;SDS011;8720;48.488;9.202;2023-05-10T06:24:31;1.50;;;1.40;;
17207;SDS011;8720;48.488;9.202;2023-05-10T06:26:59;1.70;;;1.30;;
17207;SDS011;8720;48.488;9.202;2023-05-10T06:29:28;2.17;;;1.33;;
17207;SDS011;8720;48.488;9.202;2023-05-10T06:31:55;1.40;;;1.17;;
17207;SDS011;8720;48.488;9.202;2023-05-10T06:34:23;1.63;;;1.10;;
17207;SDS011;8720;48.488;9.202;2023-05-10T06:36:51;1.30;;;1.07;;
17207;SDS011;8720;48.488;9.202;2023-05-10T06:39:18;1.20;;;1.10;;
17207;SDS011;8720;48.488;9.202;2023-05-10T06:41:45;1.97;;;1.03;;
17207;SDS011;8720;48.488;9.202;2023-05-10T06:44:12;1.37;;;1.10;;
17207;SDS011;8720;48.488;9.202;2023-05-10T06:46:41;1.30;;;1.00;;
17207;SDS011;8720;48.488;9.202;2023-05-10T06:49:08;2.50;;;1.10;;
17207;SDS011;8720;48.488;9.202;2023-05-10T06:51:35;3.77;;;1.47;;
17207;SDS011;8720;48.488;9.202;2023-05-10T06:54:03;1.70;;;1.00;;
17207;SDS011;8720;48.488;9.202;2023-05-10T06:56:30;2.13;;;1.10;;
17207;SDS011;8720;48.488;9.202;2023-05-10T06:58:57;1.47;;;1.10;;
17207;SDS011;8720;48.488;9.202;2023-05-10T07:01:24;1.20;;;0.90;;
17207;SDS011;8720;48.488;9.202;2023-05-10T07:03:53;2.50;;;1.23;;
17207;SDS011;8720;48.488;9.202;2023-05-10T07:06:20;2.60;;;1.10;;
17207;SDS011;8720;48.488;9.202;2023-05-10T07:08:47;1.97;;;1.10;;
17207;SDS011;8720;48.488;9.202;2023-05-10T07:11:15;2.90;;;1.00;;
17207;SDS011;8720;48.488;9.202;2023-05-10T07:13:42;1.40;;;1.00;;
17207;SDS011;8720;48.488;9.202;2023-05-10T07:16:11;1.10;;;0.97;;
17207;SDS011;8720;48.488;9.202;2023-05-10T07:18:39;1.30;;;1.10;;
17207;SDS011;8720;48.488;9.202;2023-05-10T07:21:07;1.30;;;0.90;;
17207;SDS011;8720;48.488;9.202;2023-05-10T07:23:34;1.40;;;0.90;;
17207;SDS011;8720;48.488;9.202;2023-05-10T07:26:02;1.40;;;1.23;;
17207;SDS011;8720;48.488;9.202;2023-05-10T07:28:29;1.53;;;1.13;;
17207;SDS011;8720;48.488;9.202;2023-05-10T07:30:56;2.53;;;1.07;;
17207;SDS011;8720;48.488;9.202;2023-05-10T07:33:24;1.77;;;1.00;;
17207;SDS011;8720;48.488;9.202;2023-05-10T07:35:51;1.50;;;1.00;;
17207;SDS011;8720;48.488;9.202;2023-05-10T07:38:20;1.30;;;1.10;;
17207;SDS011;8720;48.488;9.202;2023-05-10T07:40:47;1.87;;;1.00;;
17207;SDS011;8720;48.488;9.202;2023-05-10T07:43:14;1.30;;;0.97;;
17207;SDS011;8720;48.488;9.202;2023-05-10T07:45:41;1.60;;;1.30;;
17207;SDS011;8720;48.488;9.202;2023-05-10T07:48:09;1.20;;;0.90;;
17207;SDS011;8720;48.488;9.202;2023-05-10T07:50:36;1.67;;;0.97;;
17207;SDS011;8720;48.488;9.202;2023-05-10T07:53:03;2.33;;;0.97;;
17207;SDS011;8720;48.488;9.202;2023-05-10T07:55:32;1.70;;;1.10;;
17207;SDS011;8720;48.488;9.202;2023-05-10T07:58:00;1.30;;;1.20;;
17207;SDS011;8720;48.488;9.202;2023-05-10T08:00:27;1.20;;;1.10;;
17207;SDS011;8720;48.488;9.202;2023-05-10T08:02:54;1.30;;;1.20;;
17207;SDS011;8720;48.488;9.202;2023-05-10T08:05:22;1.17;;;0.90;;
17207;SDS011;8720;48.488;9.202;2023-05-10T08:07:49;2.47;;;1.10;;
17207;SDS011;8720;48.488;9.202;2023-05-10T08:10:16;1.60;;;1.10;;
17207;SDS011;8720;48.488;9.202;2023-05-10T08:12:45;1.50;;;1.03;;
17207;SDS011;8720;48.488;9.202;2023-05-10T08:15:12;2.13;;;1.23;;
17207;SDS011;8720;48.488;9.202;2023-05-10T08:17:40;1.43;;;1.10;;
17207;SDS011;8720;48.488;9.202;2023-05-10T08:20:08;1.97;;;0.90;;
17207;SDS011;8720;48.488;9.202;2023-05-10T08:22:37;1.10;;;0.90;;
17207;SDS011;8720;48.488;9.202;2023-05-10T08:25:05;2.90;;;1.00;;
17207;SDS011;8720;48.488;9.202;2023-05-10T08:27:33;1.30;;;1.07;;
17207;SDS011;8720;48.488;9.202;2023-05-10T08:30:02;1.43;;;1.20;;
17207;SDS011;8720;48.488;9.202;2023-05-10T08:32:30;2.43;;;0.90;;
17207;SDS011;8720;48.488;9.202;2023-05-10T08:34:57;2.10;;;1.00;;
17207;SDS011;8720;48.488;9.202;2023-05-10T08:37:25;1.33;;;1.00;;
17207;SDS011;8720;48.488;9.202;2023-05-10T08:39:55;1.97;;;1.10;;
17207;SDS011;8720;48.488;9.202;2023-05-10T08:42:23;2.23;;;1.07;;
17207;SDS011;8720;48.488;9.202;2023-05-10T08:44:56;1.77;;;0.90;;
17207;SDS011;8720;48.488;9.202;2023-05-10T08:47:28;1.33;;;0.90;;
17207;SDS011;8720;48.488;9.202;2023-05-10T08:49:56;1.10;;;0.80;;
17207;SDS011;8720;48.488;9.202;2023-05-10T08:52:26;1.10;;;0.70;;
17207;SDS011;8720;48.488;9.202;2023-05-10T08:54:56;1.90;;;0.80;;
17207;SDS011;8720;48.488;9.202;2023-05-10T08:57:23;1.00;;;0.83;;
17207;SDS011;8720;48.488;9.202;2023-05-10T08:59:51;1.57;;;0.90;;
17207;SDS011;8720;48.488;9.202;2023-05-10T09:02:20;1.50;;;0.80;;
17207;SDS011;8720;48.488;9.202;2023-05-10T09:04:49;2.97;;;1.13;;
17207;SDS011;8720;48.488;9.202;2023-05-10T09:07:17;1.00;;;0.70;;
17207;SDS011;8720;48.488;9.202;2023-05-10T09:09:45;3.70;;;1.10;;
17207;SDS011;8720;48.488;9.202;2023-05-10T09:12:13;1.43;;;1.10;;
17207;SDS011;8720;48.488;9.202;2023-05-10T09:14:41;1.10;;;0.80;;
17207;SDS011;8720;48.488;9.202;2023-05-10T09:17:12;1.20;;;0.80;;
17207;SDS011;8720;48.488;9.202;2023-05-10T09:19:41;1.20;;;0.90;;
17207;SDS011;8720;48.488;9.202;2023-05-10T09:22:08;1.10;;;0.90;;
17207;SDS011;8720;48.488;9.202;2023-05-10T09:24:36;2.30;;;0.80;;
17207;SDS011;8720;48.488;9.202;2023-05-10T09:27:07;3.40;;;1.53;;
17207;SDS011;8720;48.488;9.202;2023-05-10T09:29:41;1.00;;;0.70;;
17207;SDS011;8720;48.488;9.202;2023-05-10T09:32:10;1.10;;;0.90;;
17207;SDS011;8720;48.488;9.202;2023-05-10T09:34:37;1.20;;;0.70;;
17207;SDS011;8720;48.488;9.202;2023-05-10T09:37:06;1.30;;;0.90;;
17207;SDS011;8720;48.488;9.202;2023-05-10T09:39:34;1.63;;;1.20;;
17207;SDS011;8720;48.488;9.202;2023-05-10T09:42:03;1.00;;;0.80;;
17207;SDS011;8720;48.488;9.202;2023-05-10T09:44:33;1.20;;;0.90;;
17207;SDS011;8720;48.488;9.202;2023-05-10T09:47:00;1.47;;;1.20;;
17207;SDS011;8720;48.488;9.202;2023-05-10T09:49:29;1.20;;;0.90;;
17207;SDS011;8720;48.488;9.202;2023-05-10T09:52:00;2.70;;;1.03;;
17207;SDS011;8720;48.488;9.202;2023-05-10T09:54:30;1.10;;;0.77;;
17207;SDS011;8720;48.488;9.202;2023-05-10T09:56:58;1.10;;;0.90;;
17207;SDS011;8720;48.488;9.202;2023-05-10T09:59:26;0.90;;;0.70;;
17207;SDS011;8720;48.488;9.202;2023-05-10T10:01:55;1.23;;;0.70;;
17207;SDS011;8720;48.488;9.202;2023-05-10T10:04:25;1.47;;;0.80;;
17207;SDS011;8720;48.488;9.202;2023-05-10T10:07:04;2.00;;;0.80;;
17207;SDS011;8720;48.488;9.202;2023-05-10T10:09:33;3.13;;;0.80;;
17207;SDS011;8720;48.488;9.202;2023-05-10T10:12:01;1.63;;;1.33;;
17207;SDS011;8720;48.488;9.202;2023-05-10T10:14:29;2.17;;;0.80;;
17207;SDS011;8720;48.488;9.202;2023-05-10T10:16:57;2.40;;;1.13;;
17207;SDS011;8720;48.488;9.202;2023-05-10T10:19:27;2.57;;;0.90;;
17207;SDS011;8720;48.488;9.202;2023-05-10T10:21:56;1.00;;;0.80;;
17207;SDS011;8720;48.488;9.202;2023-05-10T10:24:24;1.77;;;0.90;;
17207;SDS011;8720;48.488;9.202;2023-05-10T10:26:53;1.37;;;0.70;;
17207;SDS011;8720;48.488;9.202;2023-05-10T10:29:31;1.80;;;0.90;;
17207;SDS011;8720;48.488;9.202;2023-05-10T10:32:08;1.93;;;1.03;;
17207;SDS011;8720;48.488;9.202;2023-05-10T10:34:48;1.20;;;0.80;;
17207;SDS011;8720;48.488;9.202;2023-05-10T10:37:17;2.03;;;0.80;;
17207;SDS011;8720;48.488;9.202;2023-05-10T10:39:44;1.20;;;0.80;;
17207;SDS011;8720;48.488;9.202;2023-05-10T10:42:17;1.10;;;0.80;;
17207;SDS011;8720;48.488;9.202;2023-05-10T10:45:11;1.10;;;0.90;;
17207;SDS011;8720;48.488;9.202;2023-05-10T10:47:39;1.03;;;0.70;;
17207;SDS011;8720;48.488;9.202;2023-05-10T10:50:08;1.10;;;0.70;;
17207;SDS011;8720;48.488;9.202;2023-05-10T10:52:38;1.10;;;0.90;;
17207;SDS011;8720;48.488;9.202;2023-05-10T10:55:07;1.40;;;0.80;;
17207;SDS011;8720;48.488;9.202;2023-05-10T10:57:45;1.27;;;0.80;;
17207;SDS011;8720;48.488;9.202;2023-05-10T11:00:20;1.87;;;1.00;;
17207;SDS011;8720;48.488;9.202;2023-05-10T11:02:54;1.90;;;0.90;;
17207;SDS011;8720;48.488;9.202;2023-05-10T11:05:25;3.53;;;0.90;;
17207;SDS011;8720;48.488;9.202;2023-05-10T11:08:12;1.70;;;1.10;;
17207;SDS011;8720;48.488;9.202;2023-05-10T11:10:54;1.10;;;0.80;;
17207;SDS011;8720;48.488;9.202;2023-05-10T11:13:34;1.00;;;0.90;;
17207;SDS011;8720;48.488;9.202;2023-05-10T11:16:10;1.60;;;1.00;;
17207;SDS011;8720;48.488;9.202;2023-05-10T11:18:59;1.07;;;0.77;;
17207;SDS011;8720;48.488;9.202;2023-05-10T11:21:29;4.90;;;1.00;;
17207;SDS011;8720;48.488;9.202;2023-05-10T11:23:57;1.77;;;1.03;;
17207;SDS011;8720;48.488;9.202;2023-05-10T11:26:30;2.73;;;1.00;;
17207;SDS011;8720;48.488;9.202;2023-05-10T11:29:01;1.20;;;0.80;;
17207;SDS011;8720;48.488;9.202;2023-05-10T11:31:30;5.50;;;1.00;;
17207;SDS011;8720;48.488;9.202;2023-05-10T11:33:57;4.40;;;0.90;;
17207;SDS011;8720;48.488;9.202;2023-05-10T11:36:27;3.13;;;1.10;;
17207;SDS011;8720;48.488;9.202;2023-05-10T11:38:58;1.57;;;0.70;;
17207;SDS011;8720;48.488;9.202;2023-05-10T11:41:27;1.10;;;0.70;;
17207;SDS011;8720;48.488;9.202;2023-05-10T11:43:57;1.30;;;0.77;;
17207;SDS011;8720;48.488;9.202;2023-05-10T11:46:27;1.40;;;0.87;;
17207;SDS011;8720;48.488;9.202;2023-05-10T11:48:57;1.10;;;0.80;;
17207;SDS011;8720;48.488;9.202;2023-05-10T11:51:29;1.40;;;0.80;;
17207;SDS011;8720;48.488;9.202;2023-05-10T11:54:00;2.00;;;0.90;;
17207;SDS011;8720;48.488;9.202;2023-05-10T11:56:32;1.40;;;0.90;;
17207;SDS011;8720;48.488;9.202;2023-05-10T11:58:59;3.60;;;1.20;;
17207;SDS011;8720;48.488;9.202;2023-05-10T12:01:29;2.07;;;1.20;;
17207;SDS011;8720;48.488;9.202;2023-05-10T12:03:57;2.43;;;0.90;;
17207;SDS011;8720;48.488;9.202;2023-05-10T12:06:26;1.00;;;0.80;;
17207;SDS011;8720;48.488;9.202;2023-05-10T12:08:56;2.60;;;1.23;;
17207;SDS011;8720;48.488;9.202;2023-05-10T12:11:25;1.23;;;0.90;;
17207;SDS011;8720;48.488;9.202;2023-05-10T12:13:54;1.40;;;0.90;;
17207;SDS011;8720;48.488;9.202;2023-05-10T12:16:23;1.33;;;1.00;;
17207;SDS011;8720;48.488;9.202;2023-05-10T12:18:53;1.63;;;1.30;;
17207;SDS011;8720;48.488;9.202;2023-05-10T12:21:26;1.40;;;1.00;;
17207;SDS011;8720;48.488;9.202;2023-05-10T12:23:59;1.40;;;0.90;;
17207;SDS011;8720;48.488;9.202;2023-05-10T12:26:30;2.37;;;1.27;;
17207;SDS011;8720;48.488;9.202;2023-05-10T12:29:11;2.03;;;1.30;;
17207;SDS011;8720;48.488;9.202;2023-05-10T12:31:53;3.63;;;1.10;;
17207;SDS011;8720;48.488;9.202;2023-05-10T12:34:29;1.87;;;1.10;;
17207;SDS011;8720;48.488;9.202;2023-05-10T12:36:59;2.37;;;1.40;;
17207;SDS011;8720;48.488;9.202;2023-05-10T12:39:39;1.57;;;0.80;;
17207;SDS011;8720;48.488;9.202;2023-05-10T12:42:07;1.30;;;0.90;;
17207;SDS011;8720;48.488;9.202;2023-05-10T12:44:34;1.47;;;0.90;;
17207;SDS011;8720;48.488;9.202;2023-05-10T12:47:01;1.13;;;0.83;;
17207;SDS011;8720;48.488;9.202;2023-05-10T12:49:30;3.20;;;1.40;;
17207;SDS011;8720;48.488;9.202;2023-05-10T12:51:57;4.60;;;1.23;;
17207;SDS011;8720;48.488;9.202;2023-05-10T12:54:25;2.00;;;1.10;;
17207;SDS011;8720;48.488;9.202;2023-05-10T12:56:53;1.10;;;0.77;;
17207;SDS011;8720;48.488;9.202;2023-05-10T12:59:20;3.57;;;1.50;;
17207;SDS011;8720;48.488;9.202;2023-05-10T13:01:47;3.40;;;1.30;;
17207;SDS011;8720;48.488;9.202;2023-05-10T13:04:15;2.87;;;1.10;;
17207;SDS011;8720;48.488;9.202;2023-05-10T13:06:43;2.23;;;1.43;;
17207;SDS011;8720;48.488;9.202;2023-05-10T13:09:11;1.53;;;1.10;;
17207;SDS011;8720;48.488;9.202;2023-05-10T13:11:38;1.53;;;1.00;;
17207;SDS011;8720;48.488;9.202;2023-05-10T13:14:06;1.50;;;0.90;;
17207;SDS011;8720;48.488;9.202;2023-05-10T13:16:33;1.97;;;1.20;;
17207;SDS011;8720;48.488;9.202;2023-05-10T13:19:00;3.30;;;1.17;;
17207;SDS011;8720;48.488;9.202;2023-05-10T13:21:28;3.17;;;1.60;;
17207;SDS011;8720;48.488;9.202;2023-05-10T13:23:56;3.03;;;1.17;;
17207;SDS011;8720;48.488;9.202;2023-05-10T13:26:25;3.40;;;1.50;;
17207;SDS011;8720;48.488;9.202;2023-05-10T13:28:52;3.20;;;1.43;;
17207;SDS011;8720;48.488;9.202;2023-05-10T13:31:20;2.80;;;1.20;;
17207;SDS011;8720;48.488;9.202;2023-05-10T13:33:47;1.20;;;1.10;;
17207;SDS011;8720;48.488;9.202;2023-05-10T13:36:15;3.27;;;1.20;;
17207;SDS011;8720;48.488;9.202;2023-05-10T13:38:42;2.00;;;1.17;;
17207;SDS011;8720;48.488;9.202;2023-05-10T13:41:11;2.03;;;1.30;;
17207;SDS011;8720;48.488;9.202;2023-05-10T13:43:38;1.97;;;1.10;;
17207;SDS011;8720;48.488;9.202;2023-05-10T13:46:05;1.87;;;1.10;;
17207;SDS011;8720;48.488;9.202;2023-05-10T13:48:33;2.77;;;1.20;;
17207;SDS011;8720;48.488;9.202;2023-05-10T13:51:01;1.50;;;1.30;;
17207;SDS011;8720;48.488;9.202;2023-05-10T13:53:29;1.97;;;1.00;;
17207;SDS011;8720;48.488;9.202;2023-05-10T13:55:57;1.97;;;1.10;;
17207;SDS011;8720;48.488;9.202;2023-05-10T13:58:25;1.40;;;0.90;;
17207;SDS011;8720;48.488;9.202;2023-05-10T14:00:52;1.97;;;1.10;;
17207;SDS011;8720;48.488;9.202;2023-05-10T14:03:20;2.50;;;1.10;;
17207;SDS011;8720;48.488;9.202;2023-05-10T14:05:47;2.27;;;1.20;;
17207;SDS011;8720;48.488;9.202;2023-05-10T14:08:14;2.70;;;1.00;;
17207;SDS011;8720;48.488;9.202;2023-05-10T14:10:42;1.50;;;1.00;;
17207;SDS011;8720;48.488;9.202;2023-05-10T14:13:10;5.73;;;1.53;;
17207;SDS011;8720;48.488;9.202;2023-05-10T14:15:38;2.07;;;1.20;;
17207;SDS011;8720;48.488;9.202;2023-05-10T14:18:06;1.47;;;1.10;;
17207;SDS011;8720;48.488;9.202;2023-05-10T14:20:33;3.23;;;1.40;;
17207;SDS011;8720;48.488;9.202;2023-05-10T14:23:00;1.80;;;1.00;;
17207;SDS011;8720;48.488;9.202;2023-05-10T14:25:27;2.40;;;1.00;;
17207;SDS011;8720;48.488;9.202;2023-05-10T14:27:55;1.30;;;1.20;;
17207;SDS011;8720;48.488;9.202;2023-05-10T14:30:22;2.97;;;1.10;;
17207;SDS011;8720;48.488;9.202;2023-05-10T14:32:51;1.60;;;1.00;;
17207;SDS011;8720;48.488;9.202;2023-05-10T14:35:19;1.77;;;1.20;;
17207;SDS011;8720;48.488;9.202;2023-05-10T14:37:46;4.33;;;1.50;;
17207;SDS011;8720;48.488;9.202;2023-05-10T14:40:13;2.53;;;1.30;;
17207;SDS011;8720;48.488;9.202;2023-05-10T14:42:42;2.73;;;1.20;;
17207;SDS011;8720;48.488;9.202;2023-05-10T14:45:09;2.33;;;1.37;;
17207;SDS011;8720;48.488;9.202;2023-05-10T14:47:37;3.43;;;1.20;;
17207;SDS011;8720;48.488;9.202;2023-05-10T14:50:07;1.37;;;1.03;;
17207;SDS011;8720;48.488;9.202;2023-05-10T14:52:34;1.80;;;1.00;;
17207;SDS011;8720;48.488;9.202;2023-05-10T14:55:02;2.13;;;1.30;;
17207;SDS011;8720;48.488;9.202;2023-05-10T14:57:29;1.73;;;1.00;;
17207;SDS011;8720;48.488;9.202;2023-05-10T14:59:57;3.30;;;1.20;;
17207;SDS011;8720;48.488;9.202;2023-05-10T15:02:24;2.60;;;1.20;;
17207;SDS011;8720;48.488;9.202;2023-05-10T15:04:52;7.17;;;1.60;;
17207;SDS011;8720;48.488;9.202;2023-05-10T15:07:20;2.30;;;1.10;;
17207;SDS011;8720;48.488;9.202;2023-05-10T15:09:47;1.57;;;1.17;;
17207;SDS011;8720;48.488;9.202;2023-05-10T15:12:16;3.70;;;1.50;;
17207;SDS011;8720;48.488;9.202;2023-05-10T15:14:44;2.20;;;1.60;;
17207;SDS011;8720;48.488;9.202;2023-05-10T15:17:11;2.80;;;1.47;;
17207;SDS011;8720;48.488;9.202;2023-05-10T15:19:38;4.13;;;1.30;;